Time;durP1;ratioP1;P1;durP2;ratioP2;P2;SDS_P1;SDS_P2;PMS_P1;PMS_P2;Temp;Humidity;BMP_temperature;BMP_pressure;BME280_temperature;BME280_humidity;BME280_pressure;Samples;Min_cycle;Max_cycle;Signal;HPM_P1;HPM_P2
2021/05/20 00:00:37;;;;;;;2.00;1.80;;;9.30;99.90;;;;;;5040538;28;20489;-56
2021/05/20 00:03:04;;;;;;;2.17;1.93;;;9.40;99.90;;;;;;5042952;28;20469;-56
2021/05/20 00:05:30;;;;;;;2.40;2.20;;;9.20;99.90;;;;;;5049175;28;20850;-56
2021/05/20 00:07:58;;;;;;;2.47;2.10;;;9.30;99.90;;;;;;5043281;28;20464;-56
2021/05/20 00:10:24;;;;;;;2.53;2.07;;;9.40;99.90;;;;;;5042674;28;20494;-56
2021/05/20 00:12:51;;;;;;;2.50;2.30;;;9.30;99.90;;;;;;5046812;28;20460;-56
2021/05/20 00:15:17;;;;;;;3.70;2.67;;;9.00;99.90;;;;;;5046705;28;20491;-56
2021/05/20 00:17:45;;;;;;;2.50;2.30;;;8.90;99.90;;;;;;5040613;28;20470;-55
2021/05/20 00:20:12;;;;;;;3.67;2.60;;;8.80;99.90;;;;;;5049932;28;20928;-56
2021/05/20 00:22:38;;;;;;;3.60;2.60;;;8.80;99.90;;;;;;5043965;28;20491;-56
2021/05/20 00:25:07;;;;;;;3.40;3.10;;;8.90;99.90;;;;;;5042452;28;20468;-55
2021/05/20 00:27:34;;;;;;;3.50;2.70;;;9.00;99.90;;;;;;5049215;28;21026;-55
2021/05/20 00:30:00;;;;;;;3.97;2.57;;;9.10;99.90;;;;;;5042132;28;20448;-55
2021/05/20 00:32:27;;;;;;;2.50;2.30;;;9.10;99.90;;;;;;5047069;28;20553;-55
2021/05/20 00:34:54;;;;;;;3.60;3.17;;;9.20;99.90;;;;;;5040982;28;20547;-55
2021/05/20 00:37:20;;;;;;;5.33;4.60;;;9.20;99.90;;;;;;5044390;28;20502;-56
2021/05/20 00:39:48;;;;;;;4.50;3.03;;;9.20;99.90;;;;;;5051437;28;20485;-55
2021/05/20 00:42:15;;;;;;;2.57;2.37;;;9.20;99.90;;;;;;5049365;28;20487;-56
2021/05/20 00:44:52;;;;;;;4.70;2.43;;;9.20;99.90;;;;;;5050235;28;20799;-56
2021/05/20 00:47:20;;;;;;;2.40;2.20;;;9.10;99.90;;;;;;5050366;28;20841;-55
2021/05/20 00:49:50;;;;;;;2.20;2.00;;;9.10;99.90;;;;;;5049568;28;20463;-55
2021/05/20 00:52:16;;;;;;;2.07;1.93;;;9.10;99.90;;;;;;5041390;28;20483;-55
2021/05/20 00:54:43;;;;;;;2.50;2.00;;;9.20;99.90;;;;;;5041182;28;20463;-55
2021/05/20 00:57:12;;;;;;;2.00;1.80;;;9.20;99.90;;;;;;5050668;28;20448;-55
2021/05/20 00:59:42;;;;;;;1.60;1.50;;;9.20;99.90;;;;;;5041172;28;20563;-55
2021/05/20 01:02:10;;;;;;;1.70;1.60;;;9.30;99.90;;;;;;5041014;28;20485;-55
2021/05/20 01:04:36;;;;;;;1.50;1.40;;;9.20;99.90;;;;;;5049680;28;20468;-56
2021/05/20 01:07:03;;;;;;;1.67;1.57;;;9.00;99.90;;;;;;5050211;28;20451;-55
2021/05/20 01:09:31;;;;;;;3.10;2.00;;;9.00;99.90;;;;;;5060427;28;20473;-56
2021/05/20 01:11:58;;;;;;;2.40;1.97;;;9.10;99.90;;;;;;5058113;28;20533;-56
2021/05/20 01:14:24;;;;;;;1.90;1.80;;;9.00;99.90;;;;;;5042431;28;20452;-56
2021/05/20 01:16:52;;;;;;;2.33;1.87;;;8.90;99.90;;;;;;5042972;28;20467;-56
2021/05/20 01:19:18;;;;;;;3.00;1.97;;;8.90;99.90;;;;;;5051714;28;20475;-56
2021/05/20 01:21:46;;;;;;;2.73;1.73;;;8.90;99.90;;;;;;5050706;28;20537;-56
2021/05/20 01:24:13;;;;;;;1.77;1.67;;;8.90;99.90;;;;;;5048545;28;20466;-56
2021/05/20 01:26:41;;;;;;;1.57;1.00;;;8.80;99.90;;;;;;5049209;28;20471;-56
2021/05/20 01:29:08;;;;;;;1.53;1.20;;;8.80;99.90;;;;;;5050669;28;20451;-56
2021/05/20 01:31:35;;;;;;;0.73;0.70;;;8.80;99.90;;;;;;5053634;28;20478;-56
2021/05/20 01:34:01;;;;;;;2.20;0.80;;;8.70;99.90;;;;;;5069656;28;20457;-56
2021/05/20 01:36:28;;;;;;;0.67;0.60;;;8.60;99.90;;;;;;5055875;28;20462;-56
2021/05/20 01:38:58;;;;;;;0.67;0.60;;;8.70;99.90;;;;;;5053575;28;20534;-56
2021/05/20 01:41:25;;;;;;;0.90;0.73;;;8.70;99.90;;;;;;5054089;28;20467;-56
2021/05/20 01:43:51;;;;;;;0.93;0.67;;;8.80;99.90;;;;;;5067801;28;21010;-56
2021/05/20 01:46:18;;;;;;;1.23;0.73;;;8.70;99.90;;;;;;5071039;28;20867;-56
2021/05/20 01:48:46;;;;;;;1.50;1.00;;;8.80;99.90;;;;;;5053631;28;20451;-56
2021/05/20 01:51:14;;;;;;;2.13;1.10;;;9.00;99.90;;;;;;5059049;28;20467;-56
2021/05/20 01:53:42;;;;;;;2.00;1.50;;;9.00;99.90;;;;;;5063648;28;20447;-56
2021/05/20 01:56:10;;;;;;;1.37;1.17;;;8.90;99.90;;;;;;5053407;28;20458;-56
2021/05/20 01:58:38;;;;;;;1.30;0.97;;;8.80;99.90;;;;;;5053492;28;20447;-56
2021/05/20 02:01:05;;;;;;;0.70;0.70;;;8.80;99.90;;;;;;5057359;28;21023;-56
2021/05/20 02:03:32;;;;;;;0.60;0.60;;;8.90;99.90;;;;;;5063421;28;20452;-56
2021/05/20 02:06:01;;;;;;;0.70;0.50;;;8.80;99.90;;;;;;5052379;28;20451;-56
2021/05/20 02:08:28;;;;;;;0.70;0.63;;;8.90;99.90;;;;;;5049871;28;20447;-56
2021/05/20 02:10:54;;;;;;;0.70;0.57;;;8.80;99.90;;;;;;5055390;28;20467;-56
2021/05/20 02:13:22;;;;;;;0.60;0.53;;;8.60;99.90;;;;;;5073390;28;20873;-56
2021/05/20 02:15:48;;;;;;;0.60;0.50;;;8.70;99.90;;;;;;5073057;28;20534;-56
2021/05/20 02:18:15;;;;;;;1.20;0.50;;;8.60;99.90;;;;;;5062718;28;20656;-56
2021/05/20 02:20:41;;;;;;;1.30;0.57;;;8.60;99.90;;;;;;5053223;28;20511;-56
2021/05/20 02:23:08;;;;;;;0.70;0.70;;;8.50;99.90;;;;;;5073228;28;20505;-56
2021/05/20 02:25:34;;;;;;;0.73;0.60;;;8.50;99.90;;;;;;5068754;28;20452;-56
2021/05/20 02:28:01;;;;;;;1.00;0.50;;;8.50;99.90;;;;;;5052011;28;20456;-56
2021/05/20 02:30:29;;;;;;;0.83;0.57;;;8.20;99.90;;;;;;5052908;28;20443;-56
2021/05/20 02:32:56;;;;;;;0.70;0.50;;;8.00;99.90;;;;;;5053384;28;20454;-56
2021/05/20 02:35:23;;;;;;;0.60;0.50;;;8.10;99.90;;;;;;5052406;28;20498;-56
2021/05/20 02:37:49;;;;;;;1.70;0.47;;;8.20;99.90;;;;;;5053029;28;20454;-56
2021/05/20 02:40:17;;;;;;;1.23;0.50;;;8.20;99.90;;;;;;5052707;28;21015;-56
2021/05/20 02:42:44;;;;;;;1.23;0.40;;;8.10;99.90;;;;;;5049828;28;20495;-56
2021/05/20 02:45:14;;;;;;;0.60;0.40;;;8.00;99.90;;;;;;5032505;28;20499;-56
2021/05/20 02:47:42;;;;;;;1.67;0.50;;;8.00;99.90;;;;;;5052251;28;20961;-56
2021/05/20 02:50:10;;;;;;;1.70;0.50;;;8.10;99.90;;;;;;5052524;28;20448;-56
2021/05/20 02:52:37;;;;;;;0.60;0.40;;;8.30;99.90;;;;;;5067931;28;20522;-56
2021/05/20 02:55:04;;;;;;;0.60;0.40;;;8.20;99.90;;;;;;5072297;28;20457;-56
2021/05/20 02:57:30;;;;;;;1.27;0.50;;;8.10;99.90;;;;;;5072369;28;20456;-56
2021/05/20 02:59:57;;;;;;;0.60;0.40;;;8.30;99.90;;;;;;5058071;28;20890;-56
2021/05/20 03:02:24;;;;;;;0.60;0.50;;;8.30;99.90;;;;;;5055385;28;20621;-56
2021/05/20 03:04:52;;;;;;;0.60;0.40;;;8.40;99.90;;;;;;5052230;28;20447;-56
2021/05/20 03:07:19;;;;;;;0.50;0.40;;;8.40;99.90;;;;;;5052320;28;20451;-56
2021/05/20 03:09:46;;;;;;;0.70;0.50;;;8.40;99.90;;;;;;5051692;28;20470;-56
2021/05/20 03:12:13;;;;;;;0.60;0.50;;;8.50;99.90;;;;;;5059721;28;20466;-56
2021/05/20 03:14:39;;;;;;;0.60;0.40;;;8.50;99.90;;;;;;5052156;28;20452;-56
2021/05/20 03:17:11;;;;;;;0.60;0.43;;;8.50;99.90;;;;;;5052314;28;20869;-56
2021/05/20 03:19:38;;;;;;;0.80;0.60;;;8.50;99.90;;;;;;5051484;28;20502;-56
2021/05/20 03:22:06;;;;;;;2.37;0.60;;;8.60;99.90;;;;;;5056147;28;20476;-56
2021/05/20 03:24:33;;;;;;;0.60;0.50;;;8.50;99.90;;;;;;5051358;28;20455;-56
2021/05/20 03:26:59;;;;;;;0.87;0.50;;;8.40;99.90;;;;;;5051716;28;20832;-56
2021/05/20 03:29:26;;;;;;;0.60;0.50;;;8.30;99.90;;;;;;5051886;28;20447;-56
2021/05/20 03:31:52;;;;;;;0.60;0.50;;;8.40;99.90;;;;;;5059629;28;20467;-56
2021/05/20 03:34:19;;;;;;;2.13;0.50;;;8.30;99.90;;;;;;5058415;28;20452;-56
2021/05/20 03:36:46;;;;;;;1.67;0.50;;;8.40;99.90;;;;;;5061601;28;20470;-56
2021/05/20 03:39:13;;;;;;;0.60;0.40;;;8.40;99.90;;;;;;5065443;28;20490;-56
2021/05/20 03:41:39;;;;;;;0.60;0.60;;;8.50;99.90;;;;;;5054677;28;20833;-56
2021/05/20 03:44:07;;;;;;;0.97;0.57;;;8.40;99.90;;;;;;5051797;28;20447;-56
2021/05/20 03:46:33;;;;;;;0.60;0.43;;;8.50;99.90;;;;;;5051572;28;20452;-56
2021/05/20 03:49:00;;;;;;;0.73;0.60;;;8.50;99.90;;;;;;5051490;28;20447;-56
2021/05/20 03:51:26;;;;;;;0.70;0.50;;;8.30;99.90;;;;;;5048961;28;20478;-56
2021/05/20 03:53:53;;;;;;;0.60;0.50;;;8.40;99.90;;;;;;5064829;28;20451;-56
2021/05/20 03:56:20;;;;;;;0.60;0.50;;;8.50;99.90;;;;;;5051155;28;20505;-56
2021/05/20 03:58:47;;;;;;;0.60;0.50;;;8.50;99.90;;;;;;5051596;28;20456;-56
2021/05/20 04:01:13;;;;;;;0.60;0.60;;;8.60;99.90;;;;;;5051036;28;20522;-56
2021/05/20 04:03:39;;;;;;;0.60;0.60;;;8.60;99.90;;;;;;5050739;28;20879;-56
2021/05/20 04:06:06;;;;;;;0.60;0.60;;;8.60;99.90;;;;;;5051967;28;20932;-56
2021/05/20 04:08:35;;;;;;;1.50;0.70;;;8.30;99.90;;;;;;5046258;28;20805;-56
2021/05/20 04:11:02;;;;;;;0.80;0.80;;;8.20;99.90;;;;;;5051353;28;20480;-56
2021/05/20 04:13:31;;;;;;;1.27;0.87;;;8.30;99.90;;;;;;5051212;28;20474;-56
2021/05/20 04:15:57;;;;;;;3.17;0.77;;;8.30;99.90;;;;;;5050928;28;20478;-56
2021/05/20 04:18:24;;;;;;;1.37;0.80;;;8.10;99.90;;;;;;5051142;28;20451;-56
2021/05/20 04:20:51;;;;;;;0.60;0.60;;;8.10;99.90;;;;;;5060062;28;20486;-56
2021/05/20 04:23:18;;;;;;;1.73;0.90;;;8.20;99.90;;;;;;5071290;28;20559;-56
2021/05/20 04:25:46;;;;;;;1.90;0.90;;;8.30;99.90;;;;;;5081535;22;20491;-53
2021/05/20 04:28:14;;;;;;;0.90;0.90;;;8.30;99.90;;;;;;5053040;28;20979;-53
2021/05/20 04:30:41;;;;;;;1.97;0.90;;;8.30;99.90;;;;;;5052454;28;20937;-53
2021/05/20 04:33:09;;;;;;;0.90;0.90;;;8.40;99.90;;;;;;5051472;28;20443;-52
2021/05/20 04:35:36;;;;;;;1.27;1.17;;;8.50;99.90;;;;;;5051379;28;20992;-53
2021/05/20 04:38:04;;;;;;;1.93;1.70;;;8.60;99.90;;;;;;5051555;28;20505;-53
2021/05/20 04:40:31;;;;;;;1.80;1.70;;;8.70;99.90;;;;;;5056095;28;20991;-52
2021/05/20 04:42:58;;;;;;;2.20;2.00;;;8.80;99.90;;;;;;5071423;28;20496;-52
2021/05/20 04:45:24;;;;;;;2.70;2.50;;;8.80;99.90;;;;;;5046650;28;20475;-53
2021/05/20 04:47:52;;;;;;;3.57;2.30;;;8.80;99.90;;;;;;5051235;28;20829;-53
2021/05/20 04:50:19;;;;;;;2.63;2.30;;;8.70;99.90;;;;;;5053570;28;20953;-52
2021/05/20 04:52:46;;;;;;;3.17;2.37;;;8.70;99.90;;;;;;5075414;28;20455;-52
2021/05/20 04:55:14;;;;;;;3.73;2.20;;;8.70;99.90;;;;;;5056984;28;21008;-53
2021/05/20 04:57:41;;;;;;;3.50;2.47;;;8.80;99.90;;;;;;5052814;28;20448;-53
2021/05/20 05:00:10;;;;;;;3.57;2.27;;;8.70;99.90;;;;;;5055374;28;20487;-53
2021/05/20 05:02:37;;;;;;;2.10;2.00;;;8.70;99.90;;;;;;5055407;28;20894;-53
2021/05/20 05:05:05;;;;;;;2.50;2.30;;;8.70;99.90;;;;;;5055077;28;20471;-53
2021/05/20 05:07:32;;;;;;;2.80;2.27;;;8.70;99.90;;;;;;5061169;28;20504;-52
2021/05/20 05:09:59;;;;;;;2.40;1.90;;;8.80;99.90;;;;;;5054621;28;20454;-53
2021/05/20 05:12:26;;;;;;;1.90;1.80;;;8.80;99.90;;;;;;5054895;28;20971;-53
2021/05/20 05:14:53;;;;;;;2.17;1.97;;;8.80;99.90;;;;;;5054488;28;20521;-53
2021/05/20 05:17:20;;;;;;;1.50;1.40;;;8.90;99.90;;;;;;5056546;28;20454;-53
2021/05/20 05:19:46;;;;;;;1.53;1.43;;;9.00;99.90;;;;;;5059613;28;20479;-52
2021/05/20 05:22:14;;;;;;;2.03;1.60;;;8.90;99.90;;;;;;5056932;28;20486;-52
2021/05/20 05:24:41;;;;;;;1.60;1.50;;;8.90;99.90;;;;;;5054280;28;20447;-52
2021/05/20 05:27:08;;;;;;;3.80;2.40;;;8.90;99.90;;;;;;5054802;28;20452;-52
2021/05/20 05:29:36;;;;;;;1.80;1.70;;;8.80;99.90;;;;;;5054673;28;20818;-52
2021/05/20 05:32:03;;;;;;;2.53;1.90;;;8.90;99.90;;;;;;5054535;28;20443;-53
2021/05/20 05:34:30;;;;;;;1.60;1.50;;;8.90;99.90;;;;;;5058685;28;20451;-53
2021/05/20 05:36:56;;;;;;;2.20;1.73;;;8.80;99.90;;;;;;5062365;28;20831;-53
2021/05/20 05:39:24;;;;;;;1.80;1.67;;;8.80;99.90;;;;;;5060797;28;20504;-53
2021/05/20 05:41:50;;;;;;;1.50;1.40;;;8.80;99.90;;;;;;5054961;28;20452;-53
2021/05/20 05:44:16;;;;;;;3.37;2.80;;;8.80;99.90;;;;;;5059891;28;20448;-52
2021/05/20 05:46:43;;;;;;;2.03;1.83;;;8.90;99.90;;;;;;5072834;28;20467;-53
2021/05/20 05:49:15;;;;;;;2.37;1.60;;;9.00;99.90;;;;;;5061905;28;20539;-53
2021/05/20 05:51:45;;;;;;;2.33;1.90;;;9.00;99.90;;;;;;5043905;28;20538;-52
2021/05/20 05:54:12;;;;;;;3.00;2.13;;;8.90;99.90;;;;;;5053390;28;20829;-53
2021/05/20 05:56:40;;;;;;;2.27;2.07;;;9.00;99.90;;;;;;5054714;28;20475;-53
2021/05/20 05:59:06;;;;;;;2.63;2.00;;;9.10;99.90;;;;;;5055326;28;20452;-52
2021/05/20 06:01:33;;;;;;;2.37;1.90;;;9.10;99.90;;;;;;5074144;28;20501;-53
2021/05/20 06:04:01;;;;;;;3.00;1.97;;;9.00;99.90;;;;;;5061770;28;20479;-53
2021/05/20 06:06:28;;;;;;;2.87;2.57;;;9.00;99.90;;;;;;5053466;28;20878;-53
2021/05/20 06:08:54;;;;;;;2.23;2.00;;;9.00;99.90;;;;;;5054979;28;20448;-53
2021/05/20 06:11:21;;;;;;;4.20;3.80;;;9.40;99.90;;;;;;5055298;28;20440;-53
2021/05/20 06:13:48;;;;;;;5.23;4.17;;;9.50;99.90;;;;;;5062921;28;20448;-52
2021/05/20 06:16:15;;;;;;;2.67;2.40;;;9.50;99.90;;;;;;5052096;28;20491;-52
2021/05/20 06:18:41;;;;;;;1.57;1.43;;;9.60;99.90;;;;;;5053635;28;20444;-52
2021/05/20 06:21:08;;;;;;;1.70;1.60;;;9.60;99.90;;;;;;5063637;28;20987;-53
2021/05/20 06:23:34;;;;;;;2.50;1.70;;;9.60;99.90;;;;;;5058920;28;20448;-52
2021/05/20 06:26:01;;;;;;;2.33;1.50;;;9.70;99.90;;;;;;5053160;28;20475;-53
2021/05/20 06:28:27;;;;;;;1.20;1.10;;;9.60;99.90;;;;;;5053631;28;20937;-52
2021/05/20 06:30:55;;;;;;;4.80;1.67;;;9.50;99.90;;;;;;5053832;28;20448;-52
2021/05/20 06:33:21;;;;;;;1.53;1.43;;;9.50;99.90;;;;;;5053559;28;20793;-53
2021/05/20 06:35:48;;;;;;;3.07;1.40;;;9.50;99.90;;;;;;5052985;28;20471;-52
2021/05/20 06:38:14;;;;;;;1.57;1.47;;;9.50;99.90;;;;;;5053416;28;20455;-52
2021/05/20 06:40:41;;;;;;;4.10;1.93;;;9.50;99.90;;;;;;5053677;28;20479;-53
2021/05/20 06:43:07;;;;;;;2.10;1.90;;;9.40;99.90;;;;;;5053278;28;20455;-52
2021/05/20 06:45:34;;;;;;;2.93;2.40;;;9.30;99.90;;;;;;5052966;28;20513;-53
2021/05/20 06:48:02;;;;;;;9.20;2.33;;;9.30;99.90;;;;;;5053121;28;21150;-53
2021/05/20 06:50:28;;;;;;;2.37;2.17;;;9.40;99.90;;;;;;5057009;28;20485;-51
2021/05/20 06:52:55;;;;;;;2.17;1.97;;;9.50;99.90;;;;;;5072988;28;20459;-52
2021/05/20 06:55:22;;;;;;;2.30;2.10;;;9.50;99.90;;;;;;5072972;28;20558;-52
2021/05/20 07:00:35;;;;;;;2.63;2.43;;;9.50;99.90;;;;;;5058371;28;20537;-52
2021/05/20 07:03:04;;;;;;;2.60;1.70;;;9.50;99.90;;;;;;5060055;28;20443;-52
2021/05/20 07:05:31;;;;;;;3.60;1.63;;;9.50;99.90;;;;;;5055373;28;21030;-53
2021/05/20 07:07:58;;;;;;;2.43;1.70;;;9.50;99.90;;;;;;5052794;28;20451;-52
2021/05/20 07:10:24;;;;;;;2.40;1.77;;;9.50;99.90;;;;;;5062512;28;20447;-52
2021/05/20 07:12:51;;;;;;;3.43;2.10;;;9.60;99.90;;;;;;5052492;28;20443;-52
2021/05/20 07:15:17;;;;;;;1.70;1.60;;;9.70;99.90;;;;;;5051665;28;20470;-53
2021/05/20 07:17:44;;;;;;;2.37;1.83;;;9.90;99.90;;;;;;5051362;28;20492;-53
2021/05/20 07:20:12;;;;;;;2.00;1.80;;;10.10;99.90;;;;;;5052611;28;20530;-52
2021/05/20 07:22:39;;;;;;;4.47;2.25;;;10.20;99.90;;;;;;5049214;28;20482;-51
2021/05/20 07:25:07;;;;;;;25.17;3.37;;;10.30;99.90;;;;;;5051904;28;20236;-53
2021/05/20 07:27:34;;;;;;;2.50;2.30;;;10.40;99.90;;;;;;5051796;28;20447;-53
2021/05/20 07:30:00;;;;;;;1.83;1.73;;;10.30;99.90;;;;;;5052215;28;20857;-53
2021/05/20 07:32:28;;;;;;;1.93;1.73;;;10.50;99.90;;;;;;5052180;28;20463;-53
2021/05/20 07:38:17;;;;;;;2.37;1.40;;;10.50;99.90;;;;;;5026694;28;20216;-51
2021/05/20 07:40:44;;;;;;;1.30;0.90;;;10.90;99.90;;;;;;5031667;28;20484;-51
2021/05/20 18:13:48;;;;;;;1.17;0.97;;;14.20;99.90;;;;;;5789307;23;21024;-50
2021/05/20 18:16:20;;;;;;;1.57;0.70;;;14.20;99.90;;;;;;4968003;28;20455;-50
2021/05/20 18:18:55;;;;;;;1.30;1.03;;;14.00;99.90;;;;;;4958757;28;20455;-50
2021/05/20 18:24:07;;;;;;;1.40;1.30;;;14.00;99.90;;;;;;4969671;28;20476;-50
2021/05/20 18:26:34;;;;;;;1.60;1.20;;;14.00;99.90;;;;;;4937284;29;20457;-51
2021/05/20 18:29:04;;;;;;;2.30;1.60;;;14.00;99.90;;;;;;4936781;29;20457;-51
2021/05/20 18:31:34;;;;;;;1.43;1.33;;;13.90;99.90;;;;;;4936652;29;20468;-51
2021/05/20 18:34:01;;;;;;;1.90;1.70;;;13.80;99.90;;;;;;4963375;23;20523;-57
2021/05/20 18:36:28;;;;;;;2.47;1.97;;;13.80;99.90;;;;;;4951648;29;20468;-57
2021/05/20 18:38:57;;;;;;;3.27;1.60;;;13.70;99.90;;;;;;4955601;29;20969;-57
2021/05/20 18:41:25;;;;;;;1.73;1.63;;;13.60;99.90;;;;;;4955425;29;20566;-57
2021/05/20 18:43:51;;;;;;;1.73;1.63;;;13.60;99.90;;;;;;4938631;29;21013;-57
2021/05/20 18:46:19;;;;;;;3.20;1.67;;;13.50;99.90;;;;;;4935909;29;20449;-57
2021/05/20 18:48:45;;;;;;;2.80;1.80;;;13.40;99.90;;;;;;4936601;29;20453;-57
2021/05/20 18:51:12;;;;;;;2.60;1.50;;;13.30;99.90;;;;;;4935846;29;20449;-57
2021/05/20 18:53:44;;;;;;;1.40;1.30;;;13.30;99.90;;;;;;4923736;29;20552;-57
2021/05/20 18:56:10;;;;;;;1.93;1.83;;;13.20;99.90;;;;;;4917138;29;20800;-57
2021/05/20 18:58:37;;;;;;;1.90;1.80;;;13.20;99.90;;;;;;4920114;29;20453;-57
2021/05/20 19:01:04;;;;;;;5.63;2.27;;;13.10;99.90;;;;;;4935429;29;20496;-57
2021/05/20 19:03:32;;;;;;;2.70;2.50;;;13.00;99.90;;;;;;4936011;29;20998;-58
2021/05/20 19:06:00;;;;;;;2.43;2.23;;;12.80;99.90;;;;;;4935976;29;20468;-57
2021/05/20 19:08:27;;;;;;;2.40;2.20;;;12.80;99.90;;;;;;4935149;29;20518;-57
2021/05/20 19:10:56;;;;;;;2.40;1.60;;;12.70;99.90;;;;;;4935379;29;20442;-57
2021/05/20 19:13:22;;;;;;;6.47;2.10;;;12.60;99.90;;;;;;4935737;29;20472;-57
2021/05/20 19:15:52;;;;;;;2.27;1.67;;;12.50;99.90;;;;;;4935717;29;20457;-57
2021/05/20 19:18:24;;;;;;;1.90;1.67;;;12.50;99.90;;;;;;4925092;29;20458;-57
2021/05/20 19:20:53;;;;;;;1.60;1.50;;;12.50;99.90;;;;;;4931332;29;20485;-57
2021/05/20 19:23:22;;;;;;;1.57;1.47;;;12.50;99.90;;;;;;4935951;29;20548;-57
2021/05/20 19:25:49;;;;;;;1.83;1.40;;;12.50;99.90;;;;;;4934186;29;20477;-57
2021/05/20 19:28:15;;;;;;;3.90;1.90;;;12.50;99.90;;;;;;4935591;29;20457;-57
2021/05/20 19:30:48;;;;;;;4.00;1.60;;;12.40;99.90;;;;;;4935832;29;20452;-57
2021/05/20 19:33:15;;;;;;;2.77;2.33;;;12.30;99.90;;;;;;4939499;29;20492;-57
2021/05/20 19:35:41;;;;;;;4.10;3.03;;;12.30;99.90;;;;;;4932878;29;20480;-57
2021/05/20 19:38:10;;;;;;;3.30;3.00;;;12.20;99.90;;;;;;4941823;29;20469;-57
2021/05/20 19:40:37;;;;;;;2.80;2.60;;;12.20;99.90;;;;;;4941876;29;20485;-57
2021/05/20 19:43:03;;;;;;;3.10;2.80;;;12.20;99.90;;;;;;4947582;29;20473;-58
2021/05/20 19:45:30;;;;;;;4.27;2.90;;;12.10;99.90;;;;;;4934366;29;20454;-57
2021/05/20 19:47:58;;;;;;;2.63;2.43;;;12.10;99.90;;;;;;4946963;29;20449;-57
2021/05/20 19:50:26;;;;;;;4.07;3.20;;;12.10;99.90;;;;;;4943295;29;20450;-57
2021/05/20 19:52:56;;;;;;;3.97;3.57;;;12.00;99.90;;;;;;4947523;29;20469;-57
2021/05/20 20:00:54;;;;;;;7.90;5.80;;;12.00;99.90;;;;;;4926540;29;20870;-57
2021/05/20 20:03:24;;;;;;;7.73;6.30;;;11.90;99.90;;;;;;4943109;29;20571;-57
2021/05/20 20:08:45;;;;;;;9.02;7.20;;;11.90;99.90;;;;;;5107184;27;20447;-57
2021/05/20 20:11:15;;;;;;;9.40;7.47;;;11.90;99.90;;;;;;5109100;28;20490;-57
2021/05/20 20:13:44;;;;;;;9.50;6.87;;;11.90;99.90;;;;;;5102934;28;20478;-57
2021/05/20 20:16:13;;;;;;;10.87;7.60;;;11.90;99.90;;;;;;5092978;28;20823;-57
2021/05/20 20:18:42;;;;;;;10.10;8.03;;;11.80;99.90;;;;;;5099242;28;20489;-56
2021/05/20 20:21:12;;;;;;;11.93;8.43;;;11.80;99.90;;;;;;5091438;28;20541;-58
2021/05/20 20:23:43;;;;;;;8.20;7.30;;;11.80;99.90;;;;;;5093033;28;20473;-57
2021/05/20 20:28:56;;;;;;;9.83;5.77;;;11.60;99.90;;;;;;5098988;28;20558;-57
2021/05/20 20:31:22;;;;;;;5.60;5.00;;;11.60;99.90;;;;;;5099149;28;20441;-57
2021/05/20 20:34:02;;;;;;;6.20;5.00;;;11.50;99.90;;;;;;5094500;28;20512;-57
2021/05/20 20:36:28;;;;;;;5.10;4.03;;;11.40;99.90;;;;;;5098452;28;20452;-57
2021/05/20 20:41:41;;;;;;;3.90;3.50;;;11.40;99.90;;;;;;5094757;28;20429;-57
2021/05/20 20:44:07;;;;;;;3.50;3.20;;;11.40;99.90;;;;;;5088306;28;20571;-57
2021/05/20 20:46:37;;;;;;;3.60;2.90;;;11.20;99.90;;;;;;5096398;28;20536;-57
2021/05/20 20:49:07;;;;;;;4.70;3.60;;;11.10;99.90;;;;;;5095020;28;20457;-58
2021/05/20 20:51:35;;;;;;;3.13;2.93;;;11.20;99.90;;;;;;5088714;28;20891;-58
2021/05/20 20:54:02;;;;;;;3.23;2.80;;;11.10;99.90;;;;;;5089697;28;20515;-57
2021/05/20 20:56:31;;;;;;;3.47;2.73;;;11.10;99.90;;;;;;5098814;28;20530;-58
2021/05/20 20:58:59;;;;;;;3.50;3.20;;;11.10;99.90;;;;;;5102556;28;20457;-58
2021/05/20 21:01:26;;;;;;;3.07;2.87;;;11.10;99.90;;;;;;5088662;28;20490;-58
2021/05/20 21:03:53;;;;;;;5.03;2.97;;;11.10;99.90;;;;;;5089418;28;20470;-57
2021/05/20 21:06:20;;;;;;;4.17;3.70;;;11.10;99.90;;;;;;5094750;28;20902;-57
2021/05/20 21:08:47;;;;;;;4.90;3.27;;;11.00;99.90;;;;;;5101035;28;20965;-58
2021/05/20 21:11:13;;;;;;;3.67;3.37;;;10.90;99.90;;;;;;5106092;28;20449;-57
2021/05/20 21:13:43;;;;;;;3.20;2.90;;;10.90;99.90;;;;;;5089281;28;20481;-57
2021/05/20 21:16:10;;;;;;;2.73;2.53;;;10.90;99.90;;;;;;5097244;28;20528;-57
2021/05/20 21:18:37;;;;;;;2.80;2.60;;;10.90;99.90;;;;;;5090726;28;20526;-58
2021/05/20 21:21:04;;;;;;;3.60;2.73;;;10.80;99.90;;;;;;5092633;28;20460;-57
2021/05/20 21:23:30;;;;;;;5.03;2.73;;;10.80;99.90;;;;;;5082511;28;20890;-58
2021/05/20 21:25:57;;;;;;;3.40;3.00;;;10.80;99.90;;;;;;5084048;28;20496;-57
2021/05/20 21:28:24;;;;;;;3.77;2.93;;;10.80;99.90;;;;;;5082664;28;20478;-58
2021/05/20 21:30:51;;;;;;;3.43;3.13;;;10.80;99.90;;;;;;5074081;28;21081;-57
2021/05/20 21:33:19;;;;;;;5.63;3.70;;;10.80;99.90;;;;;;5074393;28;20554;-57
2021/05/20 21:35:45;;;;;;;5.43;4.27;;;10.90;99.90;;;;;;5074218;28;20447;-58
2021/05/20 21:38:12;;;;;;;6.73;4.00;;;10.90;99.90;;;;;;5076468;28;20868;-57
2021/05/20 21:40:39;;;;;;;3.87;3.50;;;10.90;99.90;;;;;;5086803;28;20447;-58
2021/05/20 21:43:06;;;;;;;5.93;4.33;;;10.90;99.90;;;;;;5075079;28;20474;-57
2021/05/20 21:45:33;;;;;;;5.80;5.20;;;10.90;99.90;;;;;;5083091;28;20465;-57
2021/05/20 21:48:00;;;;;;;6.10;4.70;;;10.80;99.90;;;;;;5094219;28;20485;-57
2021/05/20 21:50:28;;;;;;;5.10;4.13;;;10.80;99.90;;;;;;5080694;28;20450;-57
2021/05/20 21:52:54;;;;;;;5.53;4.30;;;10.90;99.90;;;;;;5093692;28;20469;-57
2021/05/20 21:55:21;;;;;;;4.23;3.83;;;10.90;99.90;;;;;;5076101;28;20497;-57
2021/05/20 21:57:48;;;;;;;3.83;3.40;;;10.80;99.90;;;;;;5086909;28;20516;-57
2021/05/20 22:00:16;;;;;;;4.20;3.80;;;10.80;99.90;;;;;;5090544;28;20450;-57
2021/05/20 22:02:43;;;;;;;4.70;3.80;;;10.90;99.90;;;;;;5074047;28;20477;-57
2021/05/20 22:05:11;;;;;;;5.80;3.70;;;10.80;99.90;;;;;;5074037;28;20447;-57
2021/05/20 22:07:39;;;;;;;5.03;3.20;;;10.70;99.90;;;;;;5073208;28;20483;-57
2021/05/20 22:10:10;;;;;;;4.00;3.57;;;10.70;99.90;;;;;;5074308;28;20974;-57
2021/05/20 22:12:39;;;;;;;3.70;3.40;;;10.50;99.90;;;;;;5073560;28;21021;-58
2021/05/20 22:15:07;;;;;;;4.93;3.90;;;10.50;99.90;;;;;;5077494;28;20451;-57
2021/05/20 22:17:34;;;;;;;3.37;3.07;;;10.60;99.90;;;;;;5073396;28;20821;-57
2021/05/20 22:20:02;;;;;;;3.03;2.73;;;10.60;99.90;;;;;;5087323;28;20503;-57
2021/05/20 22:22:29;;;;;;;4.63;3.17;;;10.60;99.90;;;;;;5092408;28;20954;-57
2021/05/20 22:25:00;;;;;;;3.20;2.90;;;10.60;99.90;;;;;;5093362;28;20449;-57
2021/05/20 22:27:37;;;;;;;3.70;3.07;;;10.60;99.90;;;;;;5092921;28;20904;-58
2021/05/20 22:30:12;;;;;;;4.10;2.40;;;10.60;99.90;;;;;;5079336;28;20497;-56
2021/05/20 22:32:40;;;;;;;3.10;2.80;;;10.60;99.90;;;;;;5073317;28;20550;-56
2021/05/20 22:35:09;;;;;;;3.13;2.83;;;10.60;99.90;;;;;;5073210;28;20450;-57
2021/05/20 22:37:36;;;;;;;2.80;2.60;;;10.60;99.90;;;;;;5073895;28;20644;-56
2021/05/20 22:40:06;;;;;;;2.87;2.67;;;10.60;99.90;;;;;;5073276;28;20451;-56
2021/05/20 22:42:33;;;;;;;2.33;2.20;;;10.70;99.90;;;;;;5082986;28;20470;-57
2021/05/20 22:45:00;;;;;;;2.20;2.00;;;10.60;99.90;;;;;;5077317;28;20871;-57
2021/05/20 22:47:27;;;;;;;3.00;2.40;;;10.50;99.90;;;;;;5072459;28;20482;-56
2021/05/20 22:49:53;;;;;;;2.77;2.57;;;10.50;99.90;;;;;;5072812;28;21008;-56
2021/05/20 22:52:20;;;;;;;3.13;2.93;;;10.50;99.90;;;;;;5073138;28;20454;-56
2021/05/20 22:54:46;;;;;;;3.80;2.77;;;10.50;99.90;;;;;;5073356;28;20453;-56
2021/05/20 22:57:13;;;;;;;2.73;2.53;;;10.40;99.90;;;;;;5072866;28;20520;-57
2021/05/20 22:59:40;;;;;;;2.70;2.50;;;10.50;99.90;;;;;;5072672;28;20443;-56
2021/05/20 23:02:06;;;;;;;2.70;2.50;;;10.40;99.90;;;;;;5078629;28;20449;-56
2021/05/20 23:04:33;;;;;;;2.70;2.10;;;10.40;99.90;;;;;;5092726;28;20546;-56
2021/05/20 23:06:59;;;;;;;3.43;2.47;;;10.40;99.90;;;;;;5092653;28;20508;-56
2021/05/20 23:09:26;;;;;;;2.90;2.60;;;10.50;99.90;;;;;;5090741;28;20962;-56
2021/05/20 23:11:52;;;;;;;2.60;2.30;;;10.40;99.90;;;;;;5073775;28;20520;-56
2021/05/20 23:14:20;;;;;;;2.97;2.67;;;10.40;99.90;;;;;;5072047;28;20474;-56
2021/05/20 23:16:46;;;;;;;2.80;2.20;;;10.50;99.90;;;;;;5072349;28;20461;-56
2021/05/20 23:19:13;;;;;;;4.90;2.87;;;10.40;99.90;;;;;;5072216;28;20450;-56
2021/05/20 23:21:39;;;;;;;2.87;2.67;;;10.40;99.90;;;;;;5087411;28;21022;-57
2021/05/20 23:24:06;;;;;;;3.23;2.93;;;10.40;99.90;;;;;;5091515;28;20478;-57
2021/05/20 23:26:33;;;;;;;3.00;2.70;;;10.30;99.90;;;;;;5092369;28;20457;-57
2021/05/20 23:28:59;;;;;;;3.30;2.80;;;10.30;99.90;;;;;;5072048;28;20447;-57
2021/05/20 23:31:27;;;;;;;2.93;2.60;;;10.30;99.90;;;;;;5071840;28;20451;-57
2021/05/20 23:33:53;;;;;;;5.13;2.00;;;10.30;99.90;;;;;;5071929;28;20492;-57
2021/05/20 23:36:20;;;;;;;2.60;2.40;;;10.10;99.90;;;;;;5071489;28;20500;-57
2021/05/20 23:38:47;;;;;;;2.63;2.43;;;10.10;99.90;;;;;;5072004;28;20447;-57
2021/05/20 23:41:14;;;;;;;2.53;2.00;;;10.10;99.90;;;;;;5071647;28;20538;-57
2021/05/20 23:43:40;;;;;;;3.40;2.47;;;10.00;99.90;;;;;;5071622;28;20485;-57
2021/05/20 23:46:07;;;;;;;2.70;2.47;;;10.30;99.90;;;;;;5071225;28;20447;-57